首页
METAR-TAF:

METAR-TAF

机场 :

Berlevåg, 挪威

纬度: 70-52N, 经度: 029-02E, 海拔: 1米

当前天气观测

该预报发布于22小时和3分钟前的09:20 UTC
风速5节,风向
温度 -5°C
湿度 68%
气压 986 hPa
能见度10公里或以上
散云层高于2200英尺

METAR: ENBV 020920Z 18005KT 9999 SCT022 M05/M10 Q0986

时间: 09:23 (07:23 UTC)


TAF: 丢失

超过4000个机场的气象观测和天气预报(METAR&TAF报告)。

可查询的气象台以黄色和红色小点在地图上表示。

将鼠标移到小点上方,可查看气象台名称。

然后点击查看天气观测和预报。

如需切换地图:点击带黑十字的绿色按钮放大地图;点击带横线的绿色按钮缩小地图;或者点击绿色箭头查看邻近地区的地图。


METAR-TAF: